Minerva Virgo — SXXT — position and weather

sailwx.info

Track history (hours):
 
Tides and Currents Weather Stations Pressure Air Temp Water Temp Dewpoint Dewpoint Depression Visibility Wind Speed Wind Dir Waves Ship Positions

Minerva Virgo

Last reported at 2017-Oct-19 02:15 UTC. Time now 2017-Oct-20 19:54 UTC.
Position N 35°58' W 005°41'.

Length 182 m; draft 11.2 m.

Type: Ship. MMSI: 240730000.

Date/timePositionNaut miles runAvg speedWind from/ knotsBaromVisibWave heightAir tempDewpointWater temp
2017-Oct-19 02:15N 35°58' W 005°41'2 9.8
2017-Oct-19 02:00N 35°58' W 005°38'510.5
2017-Oct-19 01:30N 35°59' W 005°32'510.3
2017-Oct-19 01:00N 36°01' W 005°26'510.7
2017-Oct-19 00:30N 36°03' W 005°20'4 7.9
2017-Oct-19 00:00N 36°06' W 005°17'2 4.3
2017-Oct-18 23:30N 36°04' W 005°17'612.0
2017-Oct-18 23:00N 36°04' W 005°09'18912.6
2017-Oct-18 08:04N 36°20' W 001°16'112.2
2017-Oct-18 07:59N 36°20' W 001°15'7512.6
2017-Oct-18 02:02N 36°34' E 000°17'112.4
2017-Oct-18 01:58N 36°34' E 000°18'1312.7
2017-Oct-18 00:56N 36°36' E 000°34'3013.3
2017-Oct-17 22:42N 36°42' E 001°10'313.1
2017-Oct-17 22:30N 36°42' E 001°13'1312.9
2017-Oct-17 21:31N 36°44' E 001°29'512.9
2017-Oct-17 21:10N 36°45' E 001°35'213.0
2017-Oct-17 21:00N 36°45' E 001°37'1312.3
2017-Oct-17 19:59N 36°46' E 001°53'  
2017-Oct-14 16:41N 37°07' E 006°56'96 7.3
2017-Oct-14 03:31N 37°07' E 004°55'111.7
2017-Oct-14 03:27N 37°07' E 004°54'911.9
2017-Oct-14 02:40N 37°07' E 004°43'211.7
2017-Oct-14 02:30N 37°07' E 004°41'611.6
2017-Oct-14 01:59N 37°06' E 004°33'611.8
2017-Oct-14 01:30N 37°06' E 004°26'612.0
2017-Oct-14 01:00N 37°06' E 004°18'612.0
2017-Oct-14 00:30N 37°05' E 004°11'612.1
2017-Oct-14 00:00N 37°05' E 004°03'612.2
2017-Oct-13 23:31N 37°04' E 003°56'611.9
2017-Oct-13 23:01N 37°04' E 003°48'612.1
2017-Oct-13 22:30N 37°03' E 003°41'612.3
2017-Oct-13 22:00N 37°02' E 003°33'612.3
2017-Oct-13 21:30N 37°02' E 003°26'612.2
2017-Oct-13 21:00N 37°01' E 003°18'612.3
2017-Oct-13 20:30N 37°00' E 003°10'612.5
2017-Oct-13 20:00N 36°60' E 003°03'612.4
2017-Oct-13 19:30N 36°59' E 002°55'612.3
2017-Oct-13 19:00N 36°58' E 002°47'612.2
2017-Oct-13 18:30N 36°58' E 002°40'611.5
2017-Oct-13 18:00N 36°55' E 002°33'612.0
2017-Oct-13 17:30N 36°54' E 002°26'612.1
2017-Oct-13 17:00N 36°54' E 002°18'612.1
2017-Oct-13 16:30N 36°53' E 002°11'612.3
2017-Oct-13 16:01N 36°52' E 002°03'612.4
2017-Oct-13 15:30N 36°51' E 001°55'612.7
2017-Oct-13 15:00N 36°50' E 001°47'612.6
2017-Oct-13 14:30N 36°49' E 001°40'612.6
2017-Oct-13 14:00N 36°48' E 001°32'712.5
2017-Oct-13 13:29N 36°47' E 001°24'612.2
2017-Oct-13 12:59N 36°46' E 001°16'1811.8
2017-Oct-13 11:26N 36°43' E 000°54'612.3
2017-Oct-13 10:56N 36°43' E 000°46'612.5
2017-Oct-13 10:27N 36°42' E 000°39'612.6
2017-Oct-13 10:00N 36°41' E 000°32'612.5
2017-Oct-13 09:30N 36°40' E 000°24'612.3
2017-Oct-13 09:00N 36°39' E 000°16'912.2
2017-Oct-13 08:17N 36°38' E 000°05'312.1
2017-Oct-13 08:00N 36°38' E 000°01'712.4
2017-Oct-13 07:28N 36°37' W 000°07'612.6
2017-Oct-13 06:59N 36°35' W 000°14'712.5
2017-Oct-13 06:27N 36°35' W 000°23'612.4
2017-Oct-13 06:00N 36°34' W 000°29'612.2
2017-Oct-13 05:30N 36°33' W 000°37'612.4
2017-Oct-13 05:00N 36°32' W 000°45'1212.2
2017-Oct-13 03:59N 36°30' W 000°60'612.2
2017-Oct-13 03:30N 36°29' W 001°07'612.4
2017-Oct-13 02:59N 36°29' W 001°15'1012.5
2017-Oct-13 02:12N 36°27' W 001°27'2212.9
2017-Oct-13 00:29N 36°24' W 001°54'712.7
2017-Oct-12 23:57N 36°22' W 002°03'15312.4
2017-Oct-12 11:39N 36°02' W 005°10'212.2
2017-Oct-12 11:30N 36°02' W 005°12'611.4
2017-Oct-12 11:00N 36°03' W 005°19'610.9
2017-Oct-12 10:29N 36°08' W 005°23'1 0.3
2017-Oct-12 08:36N 36°08' W 005°22'0 0.1
2017-Oct-12 08:24N 36°08' W 005°22'0 0.1
2017-Oct-12 05:42N 36°08' W 005°22'0 0.1
2017-Oct-12 05:27N 36°08' W 005°22'0 0.1
2017-Oct-12 04:45N 36°08' W 005°22'0 0.3
2017-Oct-12 04:30N 36°08' W 005°22'0 0.2
2017-Oct-12 03:54N 36°08' W 005°22'0 0.1
2017-Oct-12 03:30N 36°08' W 005°22'0 0.2
2017-Oct-12 03:00N 36°08' W 005°22'0 0.1
2017-Oct-12 02:12N 36°08' W 005°22'0 0.1
2017-Oct-12 01:57N 36°08' W 005°22'0 0.0
2017-Oct-12 01:30N 36°08' W 005°22'2 3.1
2017-Oct-12 01:00N 36°06' W 005°22'3 5.7
2017-Oct-12 00:30N 36°04' W 005°22'4 8.5
2017-Oct-12 00:00N 35°59' W 005°23'611.6
2017-Oct-11 23:30N 35°57' W 005°29'1512.0
2017-Oct-11 22:17N 35°55' W 005°47'412.3
2017-Oct-11 21:55N 35°55' W 005°53'511.7
2017-Oct-11 21:30N 35°54' W 005°59'811.4
2017-Oct-11 20:46N 35°51' W 006°08'312.6
2017-Oct-11 20:30N 35°49' W 006°12'1913.7
2017-Oct-11 19:06N 35°39' W 006°32'214.2
2017-Oct-11 18:58N 35°37' W 006°33'1113.9
2017-Oct-11 18:11N 35°29' W 006°42'413.9
2017-Oct-11 17:55N 35°27' W 006°45'713.4
2017-Oct-11 17:26N 35°22' W 006°51'613.9
2017-Oct-11 16:58N 35°17' W 006°56'27614.3
2017-Oct-10 21:43N 31°51' W 010°36'313.7
2017-Oct-10 21:30N 31°48' W 010°38'813.5
2017-Oct-10 20:54N 31°42' W 010°44'513.4
2017-Oct-10 20:30N 31°37' W 010°47'713.7
2017-Oct-10 20:00N 31°32' W 010°52'3413.8
2017-Oct-10 17:34N 31°03' W 011°13'114.2
2017-Oct-10 17:30N 31°03' W 011°14'1413.7
2017-Oct-10 16:29N 30°51' W 011°22'613.1
2017-Oct-10 16:00N 30°45' W 011°26'1213.7
2017-Oct-10 15:08N 30°36' W 011°34'13814.4
2017-Oct-10 05:33N 28°42' W 013°02'114.6
2017-Oct-10 05:28N 28°40' W 013°03'1115.3
2017-Oct-10 04:46N 28°32' W 013°10'415.4
2017-Oct-10 04:29N 28°28' W 013°13'1615.2
2017-Oct-10 03:27N 28°15' W 013°23'715.2
2017-Oct-10 02:59N 28°09' W 013°27'1415.2
2017-Oct-10 02:02N 27°58' W 013°38'115.2
2017-Oct-10 02:00N 27°58' W 013°38'715.1
2017-Oct-10 01:30N 27°52' W 013°44'714.9
2017-Oct-10 01:00N 27°47' W 013°50'1514.7
2017-Oct-09 23:58N 27°36' W 014°01'714.7
2017-Oct-09 23:30N 27°30' W 014°06'714.8
2017-Oct-09 23:00N 27°24' W 014°11'814.9
2017-Oct-09 22:29N 27°19' W 014°17'715.0
2017-Oct-09 22:00N 27°13' W 014°22'714.8
2017-Oct-09 21:30N 27°08' W 014°28'  
Track history (hours):
 
Tides and Currents Weather Stations Pressure Air Temp Water Temp Dewpoint Dewpoint Depression Visibility Wind Speed Wind Dir Waves Ship Positions

Minerva Virgo

Last reported at 2017-Oct-19 02:15 UTC. Time now 2017-Oct-20 19:54 UTC.
Position N 35°58' W 005°41'.

Length 182 m; draft 11.2 m.

Type: Ship. MMSI: 240730000.

Date/timePositionNaut miles runAvg speedWind from/ knotsBaromVisibWave heightAir tempDewpointWater temp
2017-Oct-19 02:15N 35°58' W 005°41'2 9.8
2017-Oct-19 02:00N 35°58' W 005°38'510.5
2017-Oct-19 01:30N 35°59' W 005°32'510.3
2017-Oct-19 01:00N 36°01' W 005°26'510.7
2017-Oct-19 00:30N 36°03' W 005°20'4 7.9
2017-Oct-19 00:00N 36°06' W 005°17'2 4.3
2017-Oct-18 23:30N 36°04' W 005°17'612.0
2017-Oct-18 23:00N 36°04' W 005°09'18912.6
2017-Oct-18 08:04N 36°20' W 001°16'112.2
2017-Oct-18 07:59N 36°20' W 001°15'7512.6
2017-Oct-18 02:02N 36°34' E 000°17'112.4
2017-Oct-18 01:58N 36°34' E 000°18'1312.7
2017-Oct-18 00:56N 36°36' E 000°34'3013.3
2017-Oct-17 22:42N 36°42' E 001°10'313.1
2017-Oct-17 22:30N 36°42' E 001°13'1312.9
2017-Oct-17 21:31N 36°44' E 001°29'512.9
2017-Oct-17 21:10N 36°45' E 001°35'213.0
2017-Oct-17 21:00N 36°45' E 001°37'1312.3
2017-Oct-17 19:59N 36°46' E 001°53'  
2017-Oct-14 16:41N 37°07' E 006°56'96 7.3
2017-Oct-14 03:31N 37°07' E 004°55'111.7
2017-Oct-14 03:27N 37°07' E 004°54'911.9
2017-Oct-14 02:40N 37°07' E 004°43'211.7
2017-Oct-14 02:30N 37°07' E 004°41'611.6
2017-Oct-14 01:59N 37°06' E 004°33'611.8
2017-Oct-14 01:30N 37°06' E 004°26'612.0
2017-Oct-14 01:00N 37°06' E 004°18'612.0
2017-Oct-14 00:30N 37°05' E 004°11'612.1
2017-Oct-14 00:00N 37°05' E 004°03'612.2
2017-Oct-13 23:31N 37°04' E 003°56'611.9
2017-Oct-13 23:01N 37°04' E 003°48'612.1
2017-Oct-13 22:30N 37°03' E 003°41'612.3
2017-Oct-13 22:00N 37°02' E 003°33'612.3
2017-Oct-13 21:30N 37°02' E 003°26'612.2
2017-Oct-13 21:00N 37°01' E 003°18'612.3
2017-Oct-13 20:30N 37°00' E 003°10'612.5
2017-Oct-13 20:00N 36°60' E 003°03'612.4
2017-Oct-13 19:30N 36°59' E 002°55'612.3
2017-Oct-13 19:00N 36°58' E 002°47'612.2
2017-Oct-13 18:30N 36°58' E 002°40'611.5
2017-Oct-13 18:00N 36°55' E 002°33'612.0
2017-Oct-13 17:30N 36°54' E 002°26'612.1
2017-Oct-13 17:00N 36°54' E 002°18'612.1
2017-Oct-13 16:30N 36°53' E 002°11'612.3
2017-Oct-13 16:01N 36°52' E 002°03'612.4
2017-Oct-13 15:30N 36°51' E 001°55'612.7
2017-Oct-13 15:00N 36°50' E 001°47'612.6
2017-Oct-13 14:30N 36°49' E 001°40'612.6
2017-Oct-13 14:00N 36°48' E 001°32'712.5
2017-Oct-13 13:29N 36°47' E 001°24'612.2
2017-Oct-13 12:59N 36°46' E 001°16'1811.8
2017-Oct-13 11:26N 36°43' E 000°54'612.3
2017-Oct-13 10:56N 36°43' E 000°46'612.5
2017-Oct-13 10:27N 36°42' E 000°39'612.6
2017-Oct-13 10:00N 36°41' E 000°32'612.5
2017-Oct-13 09:30N 36°40' E 000°24'612.3
2017-Oct-13 09:00N 36°39' E 000°16'912.2
2017-Oct-13 08:17N 36°38' E 000°05'312.1
2017-Oct-13 08:00N 36°38' E 000°01'712.4
2017-Oct-13 07:28N 36°37' W 000°07'612.6
2017-Oct-13 06:59N 36°35' W 000°14'712.5
2017-Oct-13 06:27N 36°35' W 000°23'612.4
2017-Oct-13 06:00N 36°34' W 000°29'612.2
2017-Oct-13 05:30N 36°33' W 000°37'612.4
2017-Oct-13 05:00N 36°32' W 000°45'1212.2
2017-Oct-13 03:59N 36°30' W 000°60'612.2
2017-Oct-13 03:30N 36°29' W 001°07'612.4
2017-Oct-13 02:59N 36°29' W 001°15'1012.5
2017-Oct-13 02:12N 36°27' W 001°27'2212.9
2017-Oct-13 00:29N 36°24' W 001°54'712.7
2017-Oct-12 23:57N 36°22' W 002°03'15312.4
2017-Oct-12 11:39N 36°02' W 005°10'212.2
2017-Oct-12 11:30N 36°02' W 005°12'611.4
2017-Oct-12 11:00N 36°03' W 005°19'610.9
2017-Oct-12 10:29N 36°08' W 005°23'1 0.3
2017-Oct-12 08:36N 36°08' W 005°22'0 0.1
2017-Oct-12 08:24N 36°08' W 005°22'0 0.1
2017-Oct-12 05:42N 36°08' W 005°22'0 0.1
2017-Oct-12 05:27N 36°08' W 005°22'0 0.1
2017-Oct-12 04:45N 36°08' W 005°22'0 0.3
2017-Oct-12 04:30N 36°08' W 005°22'0 0.2
2017-Oct-12 03:54N 36°08' W 005°22'0 0.1
2017-Oct-12 03:30N 36°08' W 005°22'0 0.2
2017-Oct-12 03:00N 36°08' W 005°22'0 0.1
2017-Oct-12 02:12N 36°08' W 005°22'0 0.1
2017-Oct-12 01:57N 36°08' W 005°22'0 0.0
2017-Oct-12 01:30N 36°08' W 005°22'2 3.1
2017-Oct-12 01:00N 36°06' W 005°22'3 5.7
2017-Oct-12 00:30N 36°04' W 005°22'4 8.5
2017-Oct-12 00:00N 35°59' W 005°23'611.6
2017-Oct-11 23:30N 35°57' W 005°29'1512.0
2017-Oct-11 22:17N 35°55' W 005°47'412.3
2017-Oct-11 21:55N 35°55' W 005°53'511.7
2017-Oct-11 21:30N 35°54' W 005°59'811.4
2017-Oct-11 20:46N 35°51' W 006°08'312.6
2017-Oct-11 20:30N 35°49' W 006°12'1913.7
2017-Oct-11 19:06N 35°39' W 006°32'214.2
2017-Oct-11 18:58N 35°37' W 006°33'1113.9
2017-Oct-11 18:11N 35°29' W 006°42'413.9
2017-Oct-11 17:55N 35°27' W 006°45'713.4
2017-Oct-11 17:26N 35°22' W 006°51'613.9
2017-Oct-11 16:58N 35°17' W 006°56'27614.3
2017-Oct-10 21:43N 31°51' W 010°36'313.7
2017-Oct-10 21:30N 31°48' W 010°38'813.5
2017-Oct-10 20:54N 31°42' W 010°44'513.4
2017-Oct-10 20:30N 31°37' W 010°47'713.7
2017-Oct-10 20:00N 31°32' W 010°52'3413.8
2017-Oct-10 17:34N 31°03' W 011°13'114.2
2017-Oct-10 17:30N 31°03' W 011°14'1413.7
2017-Oct-10 16:29N 30°51' W 011°22'613.1
2017-Oct-10 16:00N 30°45' W 011°26'1213.7
2017-Oct-10 15:08N 30°36' W 011°34'13814.4
2017-Oct-10 05:33N 28°42' W 013°02'114.6
2017-Oct-10 05:28N 28°40' W 013°03'1115.3
2017-Oct-10 04:46N 28°32' W 013°10'415.4
2017-Oct-10 04:29N 28°28' W 013°13'1615.2
2017-Oct-10 03:27N 28°15' W 013°23'715.2
2017-Oct-10 02:59N 28°09' W 013°27'1415.2
2017-Oct-10 02:02N 27°58' W 013°38'115.2
2017-Oct-10 02:00N 27°58' W 013°38'715.1
2017-Oct-10 01:30N 27°52' W 013°44'714.9
2017-Oct-10 01:00N 27°47' W 013°50'1514.7
2017-Oct-09 23:58N 27°36' W 014°01'714.7
2017-Oct-09 23:30N 27°30' W 014°06'714.8
2017-Oct-09 23:00N 27°24' W 014°11'814.9
2017-Oct-09 22:29N 27°19' W 014°17'715.0
2017-Oct-09 22:00N 27°13' W 014°22'714.8
2017-Oct-09 21:30N 27°08' W 014°28'  

Dump ship's entire track history